Time;durP1;ratioP1;P1;durP2;ratioP2;P2;SDS_P1;SDS_P2;PMS_P1;PMS_P2;Temp;Humidity;BMP_temperature;BMP_pressure;BME280_temperature;BME280_humidity;BME280_pressure;Samples;Min_cycle;Max_cycle;Signal;HPM_P1;HPM_P2
2023/05/02 05:46:39;;;;;;;4.60;3.20;;;;;;;11.20;100.00;97701.97;1694347;75;1938432;-74
2023/05/02 05:49:11;;;;;;;2.90;2.60;;;;;;;11.30;100.00;97700.63;1676522;75;2921338;-72
2023/05/02 05:51:41;;;;;;;4.00;2.80;;;;;;;11.41;100.00;97707.47;1709483;75;826442;-75
2023/05/02 05:54:11;;;;;;;3.00;2.70;;;;;;;11.56;100.00;97702.66;1689366;75;1952840;-72
2023/05/02 05:56:41;;;;;;;4.45;3.60;;;;;;;11.62;100.00;97713.69;1710687;75;760104;-75
2023/05/02 05:59:12;;;;;;;3.90;2.70;;;;;;;11.73;100.00;97714.56;1705410;75;675137;-75
2023/05/02 06:01:45;;;;;;;3.70;3.10;;;;;;;11.85;100.00;97728.41;1712211;75;671105;-74
2023/05/02 06:04:15;;;;;;;3.10;2.70;;;;;;;11.91;100.00;97721.03;1691172;75;1827694;-73
2023/05/02 06:06:45;;;;;;;3.80;3.10;;;;;;;11.94;100.00;97742.00;1709054;75;940213;-74
2023/05/02 06:09:15;;;;;;;3.60;3.10;;;;;;;12.06;100.00;97732.63;1704815;75;683924;-73
2023/05/02 06:11:45;;;;;;;2.85;2.50;;;;;;;12.26;100.00;97736.56;1712631;75;680986;-77
2023/05/02 06:14:16;;;;;;;2.85;2.10;;;;;;;12.28;100.00;97740.34;1704037;75;689495;-75
2023/05/02 06:16:48;;;;;;;3.60;3.00;;;;;;;12.36;100.00;97737.91;1713168;75;672713;-73
2023/05/02 06:19:19;;;;;;;3.30;2.80;;;;;;;12.40;100.00;97734.94;1703868;75;730485;-74
2023/05/02 06:21:49;;;;;;;3.30;2.70;;;;;;;12.50;100.00;97733.53;1712666;75;693780;-73
2023/05/02 06:24:19;;;;;;;5.10;4.35;;;;;;;12.15;100.00;97735.22;1700774;75;934320;-74
2023/05/02 06:26:50;;;;;;;5.85;4.75;;;;;;;12.27;100.00;97736.09;1697825;75;1928931;-74
2023/05/02 06:29:20;;;;;;;5.10;4.15;;;;;;;12.43;100.00;97736.72;1703015;75;687463;-75
2023/05/02 06:31:57;;;;;;;4.75;3.90;;;;;;;12.38;100.00;97738.16;1710948;75;669620;-74
2023/05/02 06:34:27;;;;;;;5.50;4.70;;;;;;;12.37;100.00;97744.91;1703261;75;847760;-74
2023/05/02 06:36:58;;;;;;;7.15;5.55;;;;;;;12.28;100.00;97743.06;1710874;75;680061;-74
2023/05/02 06:39:30;;;;;;;8.60;6.80;;;;;;;12.21;100.00;97749.00;1705123;75;678958;-74
2023/05/02 06:42:01;;;;;;;7.60;6.30;;;;;;;12.24;100.00;97747.28;1711158;75;680673;-75
2023/05/02 06:44:31;;;;;;;8.00;6.70;;;;;;;12.33;100.00;97750.59;1703979;75;685306;-73
2023/05/02 06:47:07;;;;;;;11.20;8.30;;;;;;;12.13;100.00;97745.19;1697638;75;1819213;-73
2023/05/02 06:49:38;;;;;;;12.10;7.50;;;;;;;12.15;100.00;97746.22;1703927;75;756682;-75
2023/05/02 06:52:08;;;;;;;9.70;7.75;;;;;;;12.07;100.00;97745.13;1709559;75;738859;-74
2023/05/02 06:54:38;;;;;;;9.20;7.70;;;;;;;12.17;100.00;97740.25;1699067;75;943903;-74
2023/05/02 06:57:09;;;;;;;14.00;9.00;;;;;;;12.05;100.00;97735.84;1708384;75;675381;-74
2023/05/02 06:59:40;;;;;;;10.60;7.60;;;;;;;12.02;100.00;97745.06;1700390;75;761774;-75
2023/05/02 07:02:13;;;;;;;9.40;7.65;;;;;;;11.92;100.00;97745.22;1696523;75;1829474;-74
2023/05/02 07:04:43;;;;;;;12.70;8.10;;;;;;;11.93;100.00;97743.25;1703328;75;745676;-77
2023/05/02 07:07:17;;;;;;;10.10;7.55;;;;;;;11.99;100.00;97743.28;1709385;75;678194;-74
2023/05/02 07:09:47;;;;;;;13.00;8.70;;;;;;;12.07;100.00;97733.38;1674213;75;2896945;-75
2023/05/02 07:12:17;;;;;;;9.80;8.10;;;;;;;12.07;100.00;97742.38;1709568;75;780794;-74
2023/05/02 07:14:50;;;;;;;10.65;8.00;;;;;;;12.11;100.00;97740.16;1700155;75;743889;-74
2023/05/02 07:17:24;;;;;;;11.30;8.40;;;;;;;12.00;100.00;97745.56;1685092;75;2848179;-74
2023/05/02 07:19:55;;;;;;;9.40;7.70;;;;;;;12.06;100.00;97753.84;1508463;75;16943690;-76
2023/05/02 07:22:25;;;;;;;8.70;7.50;;;;;;;12.31;100.00;97752.34;1712870;75;683238;-73
2023/05/02 07:25:01;;;;;;;9.95;7.55;;;;;;;12.39;100.00;97766.38;1702084;75;740483;-74
2023/05/02 07:27:31;;;;;;;8.45;7.30;;;;;;;12.34;100.00;97774.09;1676885;75;2969191;-74
2023/05/02 07:30:01;;;;;;;10.35;6.85;;;;;;;12.61;100.00;97765.84;1709605;75;678946;-73
2023/05/02 07:32:34;;;;;;;7.45;6.65;;;;;;;12.55;100.00;97771.28;1703614;75;679212;-72
2023/05/02 07:35:04;;;;;;;9.95;7.35;;;;;;;12.60;100.00;97767.06;1707118;75;970434;-73
2023/05/02 07:37:37;;;;;;;10.00;6.80;;;;;;;12.66;100.00;97771.38;1703907;75;675914;-74
2023/05/02 07:40:09;;;;;;;7.40;6.20;;;;;;;12.91;100.00;97769.06;1710463;75;688353;-74
2023/05/02 07:42:40;;;;;;;8.20;7.10;;;;;;;12.68;100.00;97765.41;1703011;75;680994;-75
2023/05/02 07:45:12;;;;;;;7.35;6.15;;;;;;;13.00;100.00;97761.38;1710015;75;678216;-75
2023/05/02 07:47:45;;;;;;;8.90;6.40;;;;;;;13.05;100.00;97779.16;1688282;75;1971665;-74
2023/05/02 07:50:15;;;;;;;9.30;6.30;;;;;;;13.15;100.00;97768.72;1710057;75;692755;-76
2023/05/02 07:52:46;;;;;;;8.60;6.65;;;;;;;13.06;100.00;97769.69;1700010;67;992482;-74
2023/05/02 07:55:16;;;;;;;5.70;5.00;;;;;;;13.26;100.00;97768.78;1708361;75;853186;-74
2023/05/02 07:57:46;;;;;;;6.50;5.90;;;;;;;13.35;100.00;97778.88;1702316;75;674910;-77
2023/05/02 08:00:18;;;;;;;7.50;5.40;;;;;;;13.46;100.00;97765.19;1701944;75;1448030;-75
2023/05/02 08:02:51;;;;;;;9.35;6.00;;;;;;;13.21;100.00;97775.75;1689123;75;1827879;-78
2023/05/02 08:05:21;;;;;;;8.15;5.85;;;;;;;13.45;100.00;97769.19;1710315;75;733995;-75
2023/05/02 08:07:51;;;;;;;7.00;5.40;;;;;;;13.50;100.00;97773.22;1702005;75;675231;-73
2023/05/02 08:10:23;;;;;;;5.80;4.50;;;;;;;13.61;100.00;97776.78;1710997;75;680327;-74
2023/05/02 08:12:53;;;;;;;5.70;4.40;;;;;;;13.67;100.00;97781.53;1702091;75;676519;-74
2023/05/02 08:15:23;;;;;;;6.30;4.90;;;;;;;13.55;100.00;97775.22;1710375;75;675222;-77
2023/05/02 08:17:56;;;;;;;5.90;4.95;;;;;;;13.55;100.00;97781.47;1701296;75;673811;-74
2023/05/02 08:20:27;;;;;;;7.00;4.40;;;;;;;13.83;100.00;97786.38;1711252;75;674312;-73
2023/05/02 08:22:57;;;;;;;6.55;4.80;;;;;;;13.70;100.00;97786.78;1700447;75;777327;-75
2023/05/02 08:25:29;;;;;;;5.40;4.60;;;;;;;13.80;100.00;97787.34;1709703;75;815247;-73
2023/05/02 08:28:02;;;;;;;5.60;4.50;;;;;;;13.98;100.00;97780.66;1700145;75;744417;-75
2023/05/02 08:30:32;;;;;;;6.05;4.15;;;;;;;14.01;100.00;97796.16;1697693;75;1860500;-73
2023/05/02 08:33:05;;;;;;;7.55;5.45;;;;;;;14.10;100.00;97795.97;1701424;75;747101;-74
2023/05/02 08:35:35;;;;;;;6.50;4.80;;;;;;;13.88;100.00;97793.88;1711288;75;675546;-74
2023/05/02 08:38:06;;;;;;;7.45;5.05;;;;;;;13.92;100.00;97790.88;1699772;75;755857;-74
2023/05/02 08:40:40;;;;;;;6.20;4.70;;;;;;;14.04;100.00;97787.66;1707656;75;689566;-73
2023/05/02 08:43:10;;;;;;;6.60;4.90;;;;;;;14.24;100.00;97794.25;1702116;75;754580;-73
2023/05/02 08:45:44;;;;;;;6.20;4.80;;;;;;;14.22;100.00;97791.22;1709757;75;677818;-73
2023/05/02 08:48:20;;;;;;;5.80;4.15;;;;;;;14.54;100.00;97791.06;1700547;75;752499;-72
2023/05/02 08:50:52;;;;;;;6.80;4.85;;;;;;;14.65;100.00;97789.06;1701612;75;867363;-72
2023/05/02 08:53:23;;;;;;;4.80;3.90;;;;;;;14.80;100.00;97788.06;1709018;75;670675;-74
2023/05/02 08:55:55;;;;;;;6.30;4.60;;;;;;;14.84;100.00;97791.31;1702419;75;675923;-74
2023/05/02 08:58:25;;;;;;;6.30;4.40;;;;;;;14.68;100.00;97795.59;1709272;75;711642;-74
2023/05/02 09:00:55;;;;;;;;;;;;;;;14.72;100.00;97796.09;1699236;75;947044;-74
2023/05/02 09:03:34;;;;;;;4.30;3.50;;;;;;;15.07;100.00;97798.31;1709527;75;674263;-74
2023/05/02 09:06:08;;;;;;;;;;;;;;;15.23;100.00;97796.81;1700768;75;879315;-73
2023/05/02 09:08:39;;;;;;;4.20;3.50;;;;;;;15.22;100.00;97806.31;1708858;75;684155;-75
2023/05/02 09:11:12;;;;;;;4.80;3.90;;;;;;;14.90;100.00;97809.34;1701014;75;796721;-75
2023/05/02 09:13:44;;;;;;;4.75;3.25;;;;;;;14.86;100.00;97814.38;1708767;75;680797;-76
2023/05/02 09:16:16;;;;;;;5.90;3.90;;;;;;;14.78;100.00;97810.63;1702549;75;675906;-74
2023/05/02 09:18:51;;;;;;;4.50;3.75;;;;;;;14.85;100.00;97807.34;1709379;75;676043;-73
2023/05/02 09:21:24;;;;;;;5.90;3.30;;;;;;;14.93;100.00;97804.84;1700267;75;755733;-72
2023/05/02 09:23:57;;;;;;;3.90;3.40;;;;;;;15.23;100.00;97799.56;1706999;75;922416;-72
2023/05/02 09:26:31;;;;;;;3.40;2.95;;;;;;;15.49;100.00;97802.03;1701290;75;751945;-77
2023/05/02 09:29:02;;;;;;;5.85;3.75;;;;;;;14.97;100.00;97805.34;1707651;75;677670;-75
2023/05/02 09:31:36;;;;;;;5.30;3.55;;;;;;;15.17;100.00;97809.84;1688091;75;1839093;-74
2023/05/02 09:34:23;;;;;;;4.00;3.00;;;;;;;15.51;100.00;97801.50;1706989;75;676447;-74
2023/05/02 09:36:56;;;;;;;4.55;3.50;;;;;;;14.96;100.00;97794.81;1701302;75;757244;-75
2023/05/02 09:39:28;;;;;;;4.00;2.95;;;;;;;15.46;100.00;97791.25;1693883;75;1956992;-76
2023/05/02 09:42:02;;;;;;;3.65;2.70;;;;;;;15.66;98.65;97793.69;1702099;75;753306;-75
2023/05/02 09:44:42;;;;;;;5.30;3.10;;;;;;;15.34;100.00;97801.53;1708535;75;685573;-74
2023/05/02 09:47:13;;;;;;;3.25;2.50;;;;;;;15.49;100.00;97796.50;1701446;75;755461;-73
2023/05/02 09:49:48;;;;;;;4.20;2.90;;;;;;;15.64;98.12;97804.50;1709308;75;680629;-73
2023/05/02 09:52:21;;;;;;;6.45;2.90;;;;;;;15.62;96.54;97801.47;1697043;75;849464;-73
2023/05/02 09:54:52;;;;;;;4.45;3.10;;;;;;;15.52;96.05;97801.00;1708142;75;702733;-73
2023/05/02 09:57:24;;;;;;;4.10;2.55;;;;;;;15.41;96.25;97800.28;1701757;75;750478;-76
2023/05/02 10:00:04;;;;;;;6.60;2.70;;;;;;;15.44;97.19;97794.53;1707024;75;684078;-73
2023/05/02 10:02:40;;;;;;;3.85;2.65;;;;;;;15.46;94.82;97791.97;1700833;75;745995;-73
2023/05/02 10:05:15;;;;;;;4.10;2.80;;;;;;;15.51;96.01;97796.75;1700942;75;689145;-72
2023/05/02 10:07:46;;;;;;;5.40;3.40;;;;;;;15.60;94.93;97795.72;1707777;75;865995;-72
2023/05/02 10:10:20;;;;;;;4.20;3.00;;;;;;;15.40;94.85;97787.75;1688750;75;1693754;-72
2023/05/02 10:12:53;;;;;;;3.60;2.40;;;;;;;15.56;90.20;97795.22;1697512;75;1728047;-74
2023/05/02 10:15:29;;;;;;;5.80;2.30;;;;;;;15.46;95.11;97794.00;1697479;75;978818;-71
2023/05/02 10:18:02;;;;;;;5.60;2.90;;;;;;;15.54;96.48;97795.00;1710168;75;677048;-74
2023/05/02 10:20:40;;;;;;;4.60;2.55;;;;;;;15.71;93.08;97795.72;1697543;75;951473;-73
2023/05/02 10:23:12;;;;;;;3.90;2.40;;;;;;;15.70;98.48;97793.44;1705326;75;678861;-73
2023/05/02 10:25:42;;;;;;;3.70;2.60;;;;;;;15.50;96.13;97789.72;1707595;75;688992;-77
2023/05/02 10:28:14;;;;;;;3.70;2.60;;;;;;;15.55;97.87;97786.19;1701242;75;758498;-73
2023/05/02 10:30:44;;;;;;;4.10;2.20;;;;;;;15.75;100.00;97793.44;1708471;75;676269;-75
2023/05/02 10:33:18;;;;;;;4.60;2.20;;;;;;;15.46;100.00;97791.97;1689852;75;1789141;-74
2023/05/02 10:35:51;;;;;;;5.70;3.10;;;;;;;15.50;94.86;97786.97;1707167;75;674886;-74
2023/05/02 10:38:24;;;;;;;4.30;2.80;;;;;;;15.54;99.39;97784.72;1699939;75;983162;-75
2023/05/02 10:41:00;;;;;;;3.10;2.20;;;;;;;15.87;95.73;97787.88;1709939;75;677683;-72
2023/05/02 10:43:34;;;;;;;6.00;2.40;;;;;;;15.58;100.00;97787.19;1688828;75;1844774;-72
2023/05/02 10:46:05;;;;;;;6.20;2.20;;;;;;;15.47;96.38;97793.50;1708537;75;678768;-71
2023/05/02 10:48:37;;;;;;;2.00;1.80;;;;;;;15.54;98.10;97795.75;1702611;75;739765;-77
2023/05/02 10:51:13;;;;;;;2.30;2.00;;;;;;;15.70;99.58;97793.44;1706314;75;852132;-74
2023/05/02 10:53:45;;;;;;;1.90;1.70;;;;;;;15.53;100.00;97799.00;1698665;75;962417;-74
2023/05/02 10:56:21;;;;;;;3.50;2.20;;;;;;;15.00;100.00;97803.59;1707613;75;715162;-72
2023/05/02 10:58:52;;;;;;;2.60;2.10;;;;;;;15.16;100.00;97794.56;1701860;75;744326;-73
2023/05/02 11:01:40;;;;;;;3.10;2.50;;;;;;;15.18;100.00;97796.84;1707683;75;895738;-74
2023/05/02 11:04:12;;;;;;;3.35;1.95;;;;;;;15.16;100.00;97793.81;1701456;75;751377;-74
2023/05/02 11:07:24;;;;;;;2.20;1.90;;;;;;;15.12;100.00;97800.31;1707282;75;814111;-73
2023/05/02 11:09:54;;;;;;;2.40;1.85;;;;;;;14.81;100.00;97814.38;1629196;75;6770933;-76
2023/05/02 11:12:50;;;;;;;2.50;2.10;;;;;;;14.61;100.00;97805.09;1708540;75;681017;-73
2023/05/02 11:15:57;;;;;;;2.20;2.00;;;;;;;14.69;100.00;97810.84;1700871;75;745725;-74
2023/05/02 11:18:27;;;;;;;1.95;1.75;;;;;;;14.48;100.00;97808.31;1700240;75;737809;-76
2023/05/02 11:21:30;;;;;;;2.75;1.90;;;;;;;14.31;100.00;97810.28;1711178;75;678515;-74
2023/05/02 11:24:43;;;;;;;2.40;1.80;;;;;;;14.40;100.00;97812.03;1699935;75;743391;-73
2023/05/02 11:27:42;;;;;;;2.90;2.00;;;;;;;14.54;100.00;97800.06;1700594;75;744132;-73
2023/05/02 11:30:14;;;;;;;2.50;2.00;;;;;;;14.66;100.00;97800.84;1702281;75;679801;-73
2023/05/02 11:33:18;;;;;;;2.75;1.90;;;;;;;13.97;100.00;97807.41;1708090;75;697886;-74
2023/05/02 11:35:50;;;;;;;5.20;2.75;;;;;;;13.95;100.00;97814.66;1701138;75;744197;-73
2023/05/02 11:38:23;;;;;;;3.90;2.25;;;;;;;13.93;100.00;97814.41;1710010;75;673049;-73
2023/05/02 11:41:01;;;;;;;2.20;1.90;;;;;;;14.10;100.00;97806.22;1700942;75;757898;-74
2023/05/02 11:43:31;;;;;;;;;;;;;;;14.14;100.00;97818.50;1699008;75;965993;-75
2023/05/02 11:46:04;;;;;;;2.80;2.20;;;;;;;14.16;100.00;97812.47;1711261;75;677977;-75
2023/05/02 11:48:35;;;;;;;2.30;1.90;;;;;;;14.25;100.00;97818.50;1702836;75;678570;-76
2023/05/02 11:51:05;;;;;;;2.70;1.90;;;;;;;14.28;100.00;97814.00;1684179;75;2932646;-74
2023/05/02 11:53:42;;;;;;;2.40;1.80;;;;;;;14.45;100.00;97820.31;1701559;75;707840;-75
2023/05/02 11:56:15;;;;;;;2.40;2.00;;;;;;;14.42;100.00;97824.06;1710425;75;689877;-79
2023/05/02 11:58:46;;;;;;;3.60;2.20;;;;;;;14.36;100.00;97819.78;1701813;75;687149;-74
2023/05/02 12:01:17;;;;;;;7.00;2.80;;;;;;;14.16;100.00;97834.50;1709687;75;784585;-75
2023/05/02 12:03:48;;;;;;;4.75;3.15;;;;;;;14.11;100.00;97835.25;1701804;75;682891;-76
2023/05/02 12:06:20;;;;;;;2.60;2.20;;;;;;;14.05;100.00;97835.22;1696369;75;1821295;-76
2023/05/02 12:08:54;;;;;;;7.40;2.45;;;;;;;14.19;100.00;97836.25;1689504;75;1724859;-74
2023/05/02 12:11:27;;;;;;;3.50;2.40;;;;;;;14.13;100.00;97841.00;1710779;75;681761;-75
2023/05/02 12:13:58;;;;;;;4.90;2.20;;;;;;;14.10;100.00;97836.50;1700640;75;740940;-75
2023/05/02 12:16:28;;;;;;;4.60;2.30;;;;;;;14.00;100.00;97838.72;1708508;75;894774;-75
2023/05/02 12:18:59;;;;;;;2.65;2.25;;;;;;;13.69;100.00;97839.56;1700790;75;765393;-74
2023/05/02 12:21:31;;;;;;;2.75;1.95;;;;;;;13.89;100.00;97841.41;1709472;75;840534;-77
2023/05/02 12:24:03;;;;;;;3.40;2.10;;;;;;;13.26;100.00;97851.28;1686151;75;1916095;-75
2023/05/02 12:26:38;;;;;;;2.30;2.00;;;;;;;13.56;100.00;97857.22;1710629;75;678725;-77
2023/05/02 12:29:08;;;;;;;3.75;2.55;;;;;;;13.42;100.00;97853.41;1699158;75;866689;-76
2023/05/02 12:31:38;;;;;;;2.95;1.95;;;;;;;13.77;100.00;97857.88;1709540;75;688567;-75
2023/05/02 12:34:09;;;;;;;3.75;2.40;;;;;;;13.52;100.00;97856.72;1700665;75;746579;-75
2023/05/02 12:36:45;;;;;;;2.85;2.15;;;;;;;13.36;100.00;97852.63;1706835;75;677171;-75
2023/05/02 12:39:15;;;;;;;7.55;2.55;;;;;;;13.35;100.00;97864.13;1699362;75;751806;-75
2023/05/02 12:41:49;;;;;;;3.60;2.40;;;;;;;13.15;100.00;97867.69;1708051;75;725947;-77
2023/05/02 12:44:19;;;;;;;4.20;2.45;;;;;;;12.43;100.00;97861.00;1695591;75;766293;-79
2023/05/02 12:47:02;;;;;;;2.70;2.10;;;;;;;12.46;100.00;97867.53;1709324;75;689446;-77
2023/05/02 12:49:33;;;;;;;5.90;2.80;;;;;;;11.71;100.00;97867.09;1685679;75;1940258;-76
2023/05/02 12:52:03;;;;;;;3.30;2.80;;;;;;;-148.14;100.00;71486.72;1716542;75;679321;-75
2023/05/02 12:54:32;;;;;;;3.50;2.90;;;;;;;-148.14;100.00;71486.72;1719867;75;295533;-75
2023/05/02 12:57:05;;;;;;;4.80;3.20;;;;;;;-148.14;100.00;71486.72;1722182;75;155152;-76
2023/05/02 12:59:35;;;;;;;4.00;3.30;;;;;;;-148.14;100.00;71486.72;1719804;75;246106;-76
2023/05/02 13:02:05;;;;;;;5.80;3.60;;;;;;;-148.14;100.00;71486.72;1707980;75;1340919;-77
2023/05/02 13:04:38;;;;;;;7.30;3.10;;;;;;;-148.14;100.00;71486.72;1695580;75;2321091;-79
2023/05/02 13:07:08;;;;;;;7.90;3.80;;;;;;;-148.14;100.00;71486.72;1723433;75;155482;-76
2023/05/02 13:09:37;;;;;;;5.20;3.60;;;;;;;-148.14;100.00;71486.72;1714989;75;315935;-78
2023/05/02 13:12:09;;;;;;;4.80;4.00;;;;;;;-148.14;100.00;71486.72;1723313;75;156224;-77
2023/05/02 13:14:39;;;;;;;5.50;3.80;;;;;;;-148.14;100.00;71486.72;1719118;75;203114;-78
2023/05/02 13:17:09;;;;;;;4.65;3.10;;;;;;;-148.14;100.00;71486.72;1710620;75;1130788;-75
2023/05/02 13:19:39;;;;;;;3.80;2.80;;;;;;;-148.14;100.00;71486.72;1719460;75;193431;-78
2023/05/02 13:22:10;;;;;;;3.70;2.80;;;;;;;-148.14;100.00;71486.72;1721496;75;284918;-76
2023/05/02 13:24:39;;;;;;;4.60;2.70;;;;;;;-148.14;100.00;71486.72;1719950;75;204606;-76
2023/05/02 13:27:11;;;;;;;3.00;2.70;;;;;;;-148.14;100.00;71486.72;1723155;75;155628;-75
2023/05/02 13:29:41;;;;;;;2.60;2.30;;;;;;;-148.14;100.00;71486.72;1720240;75;205824;-77
2023/05/02 13:32:10;;;;;;;2.60;2.40;;;;;;;-148.14;100.00;71486.72;1721514;75;155592;-78
2023/05/02 13:34:40;;;;;;;3.85;2.90;;;;;;;-148.14;100.00;71486.72;1706526;75;1371679;-77
2023/05/02 13:37:09;;;;;;;3.30;2.70;;;;;;;-148.14;100.00;71486.72;1723507;75;156211;-79
2023/05/02 13:39:39;;;;;;;3.40;2.50;;;;;;;-148.14;100.00;71486.72;1721285;75;155545;-78
2023/05/02 13:42:11;;;;;;;3.60;2.50;;;;;;;-148.14;100.00;71486.72;1722418;75;154986;-76
2023/05/02 13:44:41;;;;;;;3.40;2.40;;;;;;;-148.14;100.00;71486.72;1722204;75;155910;-78
2023/05/02 13:47:10;;;;;;;3.30;2.80;;;;;;;-148.14;100.00;71486.72;1723149;75;156680;-76
2023/05/02 13:49:40;;;;;;;3.10;2.30;;;;;;;-148.14;100.00;71486.72;1721507;75;155711;-79
2023/05/02 13:52:09;;;;;;;4.60;2.50;;;;;;;-148.14;100.00;71486.72;1721460;75;155102;-77
2023/05/02 13:54:39;;;;;;;4.80;2.30;;;;;;;-148.14;100.00;71486.72;1696368;75;2348948;-77
2023/05/02 13:57:12;;;;;;;10.30;2.40;;;;;;;-148.14;100.00;71486.72;1722320;75;154995;-77
2023/05/02 13:59:41;;;;;;;2.40;2.10;;;;;;;-148.14;100.00;71486.72;1706937;75;1377470;-77
2023/05/02 14:02:11;;;;;;;2.80;2.20;;;;;;;-148.14;100.00;71486.72;1720745;75;317586;-75
2023/05/02 14:04:40;;;;;;;3.90;2.40;;;;;;;-148.14;100.00;71486.72;1719352;75;400664;-77
2023/05/02 14:07:10;;;;;;;3.05;2.15;;;;;;;-148.14;100.00;71486.72;1709877;75;1350491;-79
2023/05/02 14:09:39;;;;;;;2.90;2.20;;;;;;;-148.14;100.00;71486.72;1722368;75;155808;-79
2023/05/02 14:12:11;;;;;;;2.50;2.00;;;;;;;-148.14;100.00;71486.72;1724129;83;155391;-79
2023/05/02 14:14:41;;;;;;;3.80;1.70;;;;;;;-148.14;100.00;71486.72;1721389;75;270597;-76
2023/05/02 14:17:10;;;;;;;2.90;2.10;;;;;;;-148.14;100.00;71486.72;1723807;75;155471;-79
2023/05/02 14:19:40;;;;;;;2.10;1.75;;;;;;;-148.14;100.00;71486.72;1696349;75;2357211;-78
2023/05/02 14:22:10;;;;;;;1.90;1.70;;;;;;;-148.14;100.00;71486.72;1724143;75;155186;-78
2023/05/02 14:24:39;;;;;;;1.90;1.40;;;;;;;-148.14;100.00;71486.72;1720329;75;155725;-76
2023/05/02 14:27:16;;;;;;;1.90;1.60;;;;;;;-148.14;100.00;71486.72;1724203;75;156899;-78
2023/05/02 14:29:46;;;;;;;2.40;1.50;;;;;;;-148.14;100.00;71486.72;1719200;75;196012;-76
2023/05/02 14:32:16;;;;;;;3.00;1.50;;;;;;;-148.14;100.00;71486.72;1724575;75;155126;-78
2023/05/02 14:34:46;;;;;;;2.00;1.20;;;;;;;-148.14;100.00;71486.72;1721960;75;157304;-75
2023/05/02 14:37:15;;;;;;;2.10;1.40;;;;;;;-148.14;100.00;71486.72;1721991;75;299820;-78
2023/05/02 14:39:47;;;;;;;2.30;1.60;;;;;;;-148.14;100.00;71486.72;1710464;75;1131780;-75
2023/05/02 14:42:20;;;;;;;2.30;1.60;;;;;;;-148.14;100.00;71486.72;1723914;83;155057;-77
2023/05/02 14:44:49;;;;;;;5.80;1.50;;;;;;;-148.14;100.00;71486.72;1708681;75;1261904;-75
2023/05/02 14:47:19;;;;;;;2.10;1.20;;;;;;;-148.14;100.00;71486.72;1722877;75;155540;-76
2023/05/02 14:49:49;;;;;;;1.30;1.20;;;;;;;-148.14;100.00;71486.72;1720697;75;295901;-76
2023/05/02 14:52:18;;;;;;;2.80;1.10;;;;;;;-148.14;100.00;71486.72;1724402;75;155407;-76
2023/05/02 14:54:48;;;;;;;1.90;1.20;;;;;;;-148.14;100.00;71486.72;1721441;75;354604;-77
2023/05/02 14:57:20;;;;;;;1.50;1.00;;;;;;;-148.14;100.00;71486.72;1725944;75;155001;-77
2023/05/02 14:59:50;;;;;;;1.00;0.90;;;;;;;-148.14;100.00;71486.72;1727211;75;41999;-76
2023/05/02 15:02:20;;;;;;;2.90;0.90;;;;;;;-148.14;100.00;71486.72;1727329;75;41153;-78
2023/05/02 15:04:50;;;;;;;1.50;1.20;;;;;;;-148.14;100.00;71486.72;1726959;83;41670;-76
2023/05/02 15:07:19;;;;;;;1.30;1.10;;;;;;;-148.14;100.00;71486.72;1726413;75;41992;-76
2023/05/02 15:09:49;;;;;;;2.00;1.30;;;;;;;-148.14;100.00;71486.72;1726210;75;41287;-75
2023/05/02 15:12:21;;;;;;;1.10;1.00;;;;;;;-148.14;100.00;71486.72;1726290;75;41750;-75
2023/05/02 15:14:50;;;;;;;1.30;1.10;;;;;;;-148.14;100.00;71486.72;1726443;75;41868;-81
2023/05/02 15:17:20;;;;;;;1.20;1.00;;;;;;;-148.14;100.00;71486.72;1725202;75;41608;-78
2023/05/02 15:19:50;;;;;;;1.10;1.00;;;;;;;-148.14;100.00;71486.72;1726734;75;41224;-77
2023/05/02 15:22:21;;;;;;;1.80;1.20;;;;;;;-148.14;100.00;71486.72;1725963;75;42500;-75
2023/05/02 15:24:50;;;;;;;1.20;1.00;;;;;;;-148.14;100.00;71486.72;1726550;75;41466;-79
2023/05/02 15:27:22;;;;;;;1.90;1.10;;;;;;;-148.14;100.00;71486.72;1726125;75;41339;-75
2023/05/02 15:29:52;;;;;;;4.50;2.80;;;;;;;-148.14;100.00;71486.72;1726713;75;43101;-78
2023/05/02 15:32:23;;;;;;;2.10;1.70;;;;;;;-148.14;100.00;71486.72;1725907;75;41763;-78
2023/05/02 15:34:52;;;;;;;1.30;0.80;;;;;;;-148.14;100.00;71486.72;1726349;83;41440;-77
2023/05/02 15:37:22;;;;;;;1.40;0.90;;;;;;;-148.14;100.00;71486.72;1725500;75;41257;-77
2023/05/02 15:39:52;;;;;;;1.50;1.00;;;;;;;-148.14;100.00;71486.72;1727112;75;41868;-77
2023/05/02 15:42:24;;;;;;;1.60;0.80;;;;;;;-148.14;100.00;71486.72;1725197;75;41355;-76
2023/05/02 15:44:54;;;;;;;0.70;0.70;;;;;;;-148.14;100.00;71486.72;1726347;75;41574;-76
2023/05/02 15:47:23;;;;;;;1.00;0.80;;;;;;;-148.14;100.00;71486.72;1725616;75;42093;-77
2023/05/02 15:49:53;;;;;;;2.00;1.10;;;;;;;-148.14;100.00;71486.72;1726684;75;41166;-76
2023/05/02 15:52:24;;;;;;;1.40;0.80;;;;;;;-148.14;100.00;71486.72;1725486;75;41108;-77
2023/05/02 15:54:54;;;;;;;1.30;0.90;;;;;;;-148.14;100.00;71486.72;1725394;75;42009;-76
2023/05/02 15:57:27;;;;;;;1.00;0.90;;;;;;;-148.14;100.00;71486.72;1726015;75;42698;-77
2023/05/02 15:59:57;;;;;;;1.40;0.90;;;;;;;-148.14;100.00;71486.72;1725668;83;43052;-77
2023/05/02 16:02:27;;;;;;;0.80;0.70;;;;;;;-148.14;100.00;71486.72;1727122;75;41449;-75
2023/05/02 16:04:56;;;;;;;0.80;0.80;;;;;;;-148.14;100.00;71486.72;1725959;75;41681;-75
2023/05/02 16:07:26;;;;;;;1.80;1.20;;;;;;;-148.14;100.00;71486.72;1726482;75;41427;-77
2023/05/02 16:09:55;;;;;;;1.50;0.90;;;;;;;-148.14;100.00;71486.72;1725805;75;42038;-78
2023/05/02 16:12:28;;;;;;;1.30;1.00;;;;;;;-148.14;100.00;71486.72;1727339;83;41231;-80
2023/05/02 16:14:57;;;;;;;1.60;1.00;;;;;;;-148.14;100.00;71486.72;1726910;75;41685;-76
2023/05/02 16:17:27;;;;;;;2.00;1.10;;;;;;;-148.14;100.00;71486.72;1727819;75;41552;-81
2023/05/02 16:19:57;;;;;;;1.30;1.00;;;;;;;-148.14;100.00;71486.72;1726323;75;41312;-80
2023/05/02 16:22:27;;;;;;;1.60;1.00;;;;;;;-148.14;100.00;71486.72;1727417;75;41251;-76
2023/05/02 16:24:56;;;;;;;3.20;1.00;;;;;;;-148.14;100.00;71486.72;1726247;75;41255;-77
2023/05/02 16:27:28;;;;;;;1.10;0.70;;;;;;;-148.14;100.00;71486.72;1726972;75;41190;-75
2023/05/02 16:29:58;;;;;;;1.20;0.70;;;;;;;-148.14;100.00;71486.72;1724659;75;41523;-79
2023/05/02 16:32:27;;;;;;;1.10;1.00;;;;;;;-148.14;100.00;71486.72;1726547;75;41294;-77
2023/05/02 16:34:57;;;;;;;1.20;0.70;;;;;;;-148.14;100.00;71486.72;1724116;75;41741;-76
2023/05/02 16:37:26;;;;;;;2.00;1.00;;;;;;;-148.14;100.00;71486.72;1727154;75;41252;-81
2023/05/02 16:39:56;;;;;;;1.40;0.90;;;;;;;-148.14;100.00;71486.72;1725765;75;41687;-76
2023/05/02 16:42:28;;;;;;;1.00;0.80;;;;;;;-148.14;100.00;71486.72;1727926;75;41559;-77
2023/05/02 16:44:58;;;;;;;0.90;0.70;;;;;;;-148.14;100.00;71486.72;1725570;75;41242;-77
2023/05/02 16:47:28;;;;;;;1.40;1.00;;;;;;;-148.14;100.00;71486.72;1726470;75;41757;-76
2023/05/02 16:49:58;;;;;;;3.10;1.00;;;;;;;-148.14;100.00;71486.72;1726050;75;41707;-78
2023/05/02 16:52:28;;;;;;;1.20;0.80;;;;;;;-148.14;100.00;71486.72;1726376;83;41333;-77
2023/05/02 16:54:57;;;;;;;1.00;0.90;;;;;;;-148.14;100.00;71486.72;1724901;75;41929;-75
2023/05/02 16:57:30;;;;;;;1.40;0.90;;;;;;;-148.14;100.00;71486.72;1726569;83;41303;-75
2023/05/02 17:00:00;;;;;;;1.00;0.90;;;;;;;-148.14;100.00;71486.72;1725366;75;42344;-75
2023/05/02 17:02:29;;;;;;;0.90;0.80;;;;;;;-148.14;100.00;71486.72;1726138;75;41714;-77
2023/05/02 17:05:01;;;;;;;0.80;0.70;;;;;;;-148.14;100.00;71486.72;1725492;75;41191;-75
2023/05/02 17:07:31;;;;;;;1.00;0.80;;;;;;;-148.14;100.00;71486.72;1726388;75;41606;-76
2023/05/02 17:10:00;;;;;;;0.80;0.60;;;;;;;-148.14;100.00;71486.72;1725254;75;42061;-78
2023/05/02 17:12:32;;;;;;;0.90;0.70;;;;;;;-148.14;100.00;71486.72;1726735;75;41375;-79
2023/05/02 17:15:02;;;;;;;1.00;0.70;;;;;;;-148.14;100.00;71486.72;1725140;75;41724;-81
2023/05/02 17:17:32;;;;;;;0.80;0.80;;;;;;;-148.14;100.00;71486.72;1725434;83;41269;-79
2023/05/02 17:20:02;;;;;;;1.10;0.80;;;;;;;-148.14;100.00;71486.72;1725299;75;41635;-79